»·PEaware :: N5077J KSAN-KSBA

N5077J :: KSAN-KSBA

FLIGHT INFORMATION

Flight Status: Arrived
Operator: Privately registered:
United States
More flights under this callsign
Pilot: Chris S. (2256)
Aircraft: CESSNA 310
(C310)
More flights by this aircraft type
Origin: KSAN San Diego Intl-Lindbergh
United States
Destination: KSBA Santa Barbara Mun
United States
More flights between these airports :: More routes between these airports
Route: OCN V23 LAX V299 VTU VTU282 KWANG
File this flight plan on PilotEdge
Remarks:
Altitude:
(Current/Filed)
6,000ft
Speed:
(Current/Filed)
160kts
Departed: 01-Sep-18 04:33 PM
Arrived: 01-Sep-18 05:34 PM
Distance/Time
Traveled:
167nm/1:01
Distance/Time
To Go:
Arrived

Flight Plot

Page will automatically refresh every two minutes.


Map Options




Map Legend


Flown Route
Filed Route
Departure Airport
Arrival Airport
Navaid (VOR, NDB)
Fix

Horizontal Profiles

Position Reports

Time Latitude Longitude Heading Altitude Ground
Speed
01-Sep-18 16:13 32.733346 -117.178226 17 18ft 0kts
01-Sep-18 16:14 32.733346 -117.178226 17 18ft 0kts
01-Sep-18 16:15 32.733347 -117.178226 17 18ft 0kts
01-Sep-18 16:16 32.733349 -117.178225 17 18ft 0kts
01-Sep-18 16:16 32.733350 -117.178225 17 18ft 0kts
01-Sep-18 16:18 32.733351 -117.178224 17 18ft 0kts
01-Sep-18 16:19 32.733352 -117.178224 17 18ft 0kts
01-Sep-18 16:20 32.733353 -117.178224 17 18ft 0kts
01-Sep-18 16:20 32.733521 -117.178300 315 18ft 3kts
01-Sep-18 16:21 32.733518 -117.179523 194 18ft 2kts
01-Sep-18 16:23 32.733509 -117.179525 194 18ft 0kts
01-Sep-18 16:24 32.732452 -117.179802 156 18ft 7kts
01-Sep-18 16:24 32.731739 -117.177394 106 18ft 10kts
01-Sep-18 16:25 32.731004 -117.175576 147 18ft 0kts
01-Sep-18 16:26 32.731004 -117.175576 147 18ft 0kts
01-Sep-18 16:27 32.731004 -117.175576 147 18ft 0kts
01-Sep-18 16:28 32.731003 -117.175576 147 18ft 0kts
01-Sep-18 16:29 32.731003 -117.175576 147 18ft 0kts
01-Sep-18 16:30 32.731003 -117.175576 147 18ft 0kts
01-Sep-18 16:31 32.731003 -117.175575 147 18ft 0kts
01-Sep-18 16:32 32.731003 -117.175575 147 18ft 0kts
01-Sep-18 16:33 32.730330 -117.175282 200 18ft 6kts
01-Sep-18 16:34 32.732740 -117.185758 284 81ft 115kts
01-Sep-18 16:35 32.756420 -117.217563 318 1807ft 143kts
01-Sep-18 16:36 32.790963 -117.252968 317 2308ft 174kts
01-Sep-18 16:37 32.826891 -117.291654 318 2873ft 173kts
01-Sep-18 16:38 32.862541 -117.324466 341 4006ft 153kts
01-Sep-18 16:39 32.904422 -117.335733 346 5186ft 148kts
01-Sep-18 16:40 32.945625 -117.346017 347 5987ft 163kts
01-Sep-18 16:41 32.993554 -117.357695 347 6001ft 181kts
01-Sep-18 16:42 33.043081 -117.369814 347 6003ft 181kts
01-Sep-18 16:43 33.092282 -117.381706 347 6001ft 180kts
01-Sep-18 16:44 33.141482 -117.393665 347 5996ft 180kts
01-Sep-18 16:45 33.190670 -117.405646 347 5995ft 180kts
01-Sep-18 16:46 33.239818 -117.418800 334 6004ft 183kts
01-Sep-18 16:47 33.277110 -117.460399 316 5999ft 182kts
01-Sep-18 16:48 33.313252 -117.502615 316 6001ft 181kts
01-Sep-18 16:49 33.349374 -117.544729 316 6000ft 181kts
01-Sep-18 16:50 33.385525 -117.586943 316 5998ft 181kts
01-Sep-18 16:51 33.421650 -117.629198 316 6000ft 182kts
01-Sep-18 16:52 33.458015 -117.671785 317 5996ft 182kts
01-Sep-18 16:53 33.494304 -117.714259 317 5990ft 182kts
01-Sep-18 16:54 33.530527 -117.756881 317 5989ft 182kts
01-Sep-18 16:55 33.566795 -117.799541 317 5988ft 183kts
01-Sep-18 16:56 33.603082 -117.842461 313 5987ft 184kts
01-Sep-18 16:57 33.632108 -117.893301 305 5985ft 185kts
01-Sep-18 16:58 33.660544 -117.944579 305 5988ft 184kts
01-Sep-18 16:59 33.689424 -117.996049 306 5982ft 187kts
01-Sep-18 17:00 33.718416 -118.047752 306 5986ft 185kts
01-Sep-18 17:01 33.748104 -118.100708 306 5984ft 189kts
01-Sep-18 17:02 33.777075 -118.152453 306 5992ft 185kts
01-Sep-18 17:03 33.803540 -118.199813 306 5994ft 185kts
01-Sep-18 17:04 33.832922 -118.252440 306 5990ft 188kts
01-Sep-18 17:05 33.862374 -118.305248 306 5994ft 188kts
01-Sep-18 17:06 33.892086 -118.358635 306 5991ft 188kts
01-Sep-18 17:07 33.920890 -118.410415 306 5997ft 184kts
01-Sep-18 17:08 33.944216 -118.466966 293 5991ft 188kts
01-Sep-18 17:09 33.962823 -118.525459 293 5995ft 185kts
01-Sep-18 17:10 33.981237 -118.583360 293 5995ft 185kts
01-Sep-18 17:11 33.999590 -118.641048 293 5999ft 184kts
01-Sep-18 17:12 34.017993 -118.699007 293 5999ft 186kts
01-Sep-18 17:13 34.036515 -118.757490 293 5994ft 186kts
01-Sep-18 17:14 34.053045 -118.817002 289 5991ft 186kts
01-Sep-18 17:15 34.068724 -118.876201 290 5999ft 186kts
01-Sep-18 17:16 34.084978 -118.937227 290 5994ft 188kts
01-Sep-18 17:17 34.100931 -118.997123 290 5997ft 186kts
01-Sep-18 17:18 34.117397 -119.055961 298 6000ft 182kts
01-Sep-18 17:19 34.140443 -119.110519 299 5999ft 182kts
01-Sep-18 17:20 34.163331 -119.165006 298 5999ft 182kts
01-Sep-18 17:21 34.186137 -119.219484 299 5999ft 181kts
01-Sep-18 17:22 34.209565 -119.275545 298 5988ft 188kts
01-Sep-18 17:23 34.232963 -119.331360 298 5401ft 182kts
01-Sep-18 17:24 34.255186 -119.384626 298 4499ft 174kts
01-Sep-18 17:25 34.276312 -119.435408 298 4003ft 158kts
01-Sep-18 17:26 34.295254 -119.480984 298 4007ft 152kts
01-Sep-18 17:27 34.315302 -119.530625 294 4003ft 170kts
01-Sep-18 17:28 34.334023 -119.583745 295 3998ft 172kts
01-Sep-18 17:29 34.353047 -119.636935 295 3993ft 172kts
01-Sep-18 17:30 34.371843 -119.689407 295 3310ft 164kts
01-Sep-18 17:31 34.389140 -119.737648 296 2943ft 145kts
01-Sep-18 17:32 34.406517 -119.774955 301 1578ft 105kts
01-Sep-18 17:33 34.424882 -119.799884 307 765ft 96kts
01-Sep-18 17:34 34.428119 -119.830873 263 112ft 93kts
01-Sep-18 17:35 34.428242 -119.846011 53 13ft 4kts
01-Sep-18 17:36 34.430376 -119.840690 65 13ft 19kts
01-Sep-18 17:37 34.431867 -119.836032 68 13ft 7kts
01-Sep-18 17:38 34.432641 -119.835133 71 13ft 0kts

Navigation Log

Ident Type
1. KSAN Airport
2. OCN Navaid
3. KELPS Fix
4. DANAH Fix
5. KRAUZ Fix
6. BALBO Fix
7. MIDDS Fix
8. SLI Navaid
9. POPPR Fix
10. HERMO Fix
11. LAX Navaid
12. SADDE Fix
13. VTU Navaid
14. KWANG Fix
15. KSBA Airport